In Rescue
 
Open Full Screen Window  High Contrast Mode
Wind Gusting 00 knots
04
July 22, 2019 3:43 PM CDT
Weather Information
Wind Direction
  290 °
Wind Speed
  04 kt (5 mph)
Wind Gust
  00 kt (0 mph)
Altimeter
30.25 in
Visibility
10 SM
Temperature
25° C
77° F
Dewpoint
13° C
55° F
Humidity
47%
1hr Rain Fall
00.00 in.
24hr Rain Fall
00.00 in.
Sky Condition
Scattered @ 7,500 ft
VFR

METAR KCKN 222043Z AUTO 29004KT 10SM SCT075 25/13 A3025 RMK AO2

FAA Disclaimer: The data displayed is for advisory purposes only and is not to be used for flight planning or operations.